sensor_id;sensor_type;location;lat;lon;timestamp;temperature;humidity
45945;DHT22;31655;48.972;10.686;2022-07-21T00:00:42;19.00;99.90
45945;DHT22;31655;48.972;10.686;2022-07-21T00:03:08;18.90;99.90
45945;DHT22;31655;48.972;10.686;2022-07-21T00:05:33;18.90;99.90
45945;DHT22;31655;48.972;10.686;2022-07-21T00:08:00;18.80;99.90
45945;DHT22;31655;48.972;10.686;2022-07-21T00:10:26;18.80;99.90
45945;DHT22;31655;48.972;10.686;2022-07-21T00:12:53;18.80;99.90
45945;DHT22;31655;48.972;10.686;2022-07-21T00:15:21;18.80;99.90
45945;DHT22;31655;48.972;10.686;2022-07-21T00:17:46;18.80;99.90
45945;DHT22;31655;48.972;10.686;2022-07-21T00:20:13;18.80;99.90
45945;DHT22;31655;48.972;10.686;2022-07-21T00:22:39;18.90;99.90
45945;DHT22;31655;48.972;10.686;2022-07-21T00:25:06;18.90;99.90
45945;DHT22;31655;48.972;10.686;2022-07-21T00:27:32;18.90;99.90
45945;DHT22;31655;48.972;10.686;2022-07-21T00:29:57;19.00;99.90
45945;DHT22;31655;48.972;10.686;2022-07-21T00:32:23;19.10;99.90
45945;DHT22;31655;48.972;10.686;2022-07-21T00:34:49;19.10;99.90
45945;DHT22;31655;48.972;10.686;2022-07-21T00:37:14;20.40;99.90
45945;DHT22;31655;48.972;10.686;2022-07-21T00:39:40;19.10;99.90
45945;DHT22;31655;48.972;10.686;2022-07-21T00:42:05;19.20;99.90
45945;DHT22;31655;48.972;10.686;2022-07-21T00:44:31;19.10;99.90
45945;DHT22;31655;48.972;10.686;2022-07-21T00:46:57;19.10;99.90
45945;DHT22;31655;48.972;10.686;2022-07-21T00:49:24;18.90;99.90
45945;DHT22;31655;48.972;10.686;2022-07-21T00:51:50;20.90;99.90
45945;DHT22;31655;48.972;10.686;2022-07-21T00:54:17;19.00;99.90
45945;DHT22;31655;48.972;10.686;2022-07-21T00:56:45;19.10;99.90
45945;DHT22;31655;48.972;10.686;2022-07-21T00:59:11;19.00;99.90
45945;DHT22;31655;48.972;10.686;2022-07-21T01:01:37;19.00;99.90
45945;DHT22;31655;48.972;10.686;2022-07-21T01:04:03;19.00;99.90
45945;DHT22;31655;48.972;10.686;2022-07-21T01:06:29;18.90;99.90
45945;DHT22;31655;48.972;10.686;2022-07-21T01:08:54;18.90;99.90
45945;DHT22;31655;48.972;10.686;2022-07-21T01:11:21;18.90;99.90
45945;DHT22;31655;48.972;10.686;2022-07-21T01:13:49;18.80;99.90
45945;DHT22;31655;48.972;10.686;2022-07-21T01:16:14;18.80;99.90
45945;DHT22;31655;48.972;10.686;2022-07-21T01:18:40;18.80;99.90
45945;DHT22;31655;48.972;10.686;2022-07-21T01:21:39;18.70;99.90
45945;DHT22;31655;48.972;10.686;2022-07-21T01:24:05;18.60;99.90
45945;DHT22;31655;48.972;10.686;2022-07-21T01:26:42;18.50;99.90
45945;DHT22;31655;48.972;10.686;2022-07-21T01:29:09;18.40;99.90
45945;DHT22;31655;48.972;10.686;2022-07-21T01:31:36;18.30;99.90
45945;DHT22;31655;48.972;10.686;2022-07-21T01:34:02;18.20;99.90
45945;DHT22;31655;48.972;10.686;2022-07-21T01:36:28;18.10;99.90
45945;DHT22;31655;48.972;10.686;2022-07-21T01:38:54;18.00;99.90
45945;DHT22;31655;48.972;10.686;2022-07-21T01:41:38;19.00;99.90
45945;DHT22;31655;48.972;10.686;2022-07-21T01:44:06;17.90;99.90
45945;DHT22;31655;48.972;10.686;2022-07-21T01:46:35;17.80;99.90
45945;DHT22;31655;48.972;10.686;2022-07-21T01:49:01;17.80;99.90
45945;DHT22;31655;48.972;10.686;2022-07-21T01:51:27;17.80;99.90
45945;DHT22;31655;48.972;10.686;2022-07-21T01:53:53;17.80;99.90
45945;DHT22;31655;48.972;10.686;2022-07-21T01:56:20;17.80;99.90
45945;DHT22;31655;48.972;10.686;2022-07-21T01:58:46;17.80;99.90
45945;DHT22;31655;48.972;10.686;2022-07-21T02:01:12;17.70;99.90
45945;DHT22;31655;48.972;10.686;2022-07-21T02:03:38;17.70;99.90
45945;DHT22;31655;48.972;10.686;2022-07-21T02:06:05;19.40;99.90
45945;DHT22;31655;48.972;10.686;2022-07-21T02:08:31;17.60;99.90
45945;DHT22;31655;48.972;10.686;2022-07-21T02:10:57;19.60;99.90
45945;DHT22;31655;48.972;10.686;2022-07-21T02:13:23;18.50;99.90
45945;DHT22;31655;48.972;10.686;2022-07-21T02:15:49;17.60;99.90
45945;DHT22;31655;48.972;10.686;2022-07-21T02:18:15;17.60;99.90
45945;DHT22;31655;48.972;10.686;2022-07-21T02:20:40;17.60;99.90
45945;DHT22;31655;48.972;10.686;2022-07-21T02:23:07;17.70;99.90
45945;DHT22;31655;48.972;10.686;2022-07-21T02:25:32;17.70;99.90
45945;DHT22;31655;48.972;10.686;2022-07-21T02:27:58;17.70;99.90
45945;DHT22;31655;48.972;10.686;2022-07-21T02:30:24;17.80;99.90
45945;DHT22;31655;48.972;10.686;2022-07-21T02:32:49;17.70;99.90
45945;DHT22;31655;48.972;10.686;2022-07-21T02:35:15;17.70;99.90
45945;DHT22;31655;48.972;10.686;2022-07-21T02:37:40;18.80;99.90
45945;DHT22;31655;48.972;10.686;2022-07-21T02:40:07;17.70;99.90
45945;DHT22;31655;48.972;10.686;2022-07-21T02:42:32;17.80;99.90
45945;DHT22;31655;48.972;10.686;2022-07-21T02:44:58;18.00;99.90
45945;DHT22;31655;48.972;10.686;2022-07-21T02:47:23;17.80;99.90
45945;DHT22;31655;48.972;10.686;2022-07-21T02:49:49;17.90;99.90
45945;DHT22;31655;48.972;10.686;2022-07-21T02:52:14;17.90;99.90
45945;DHT22;31655;48.972;10.686;2022-07-21T02:54:40;18.00;99.90
45945;DHT22;31655;48.972;10.686;2022-07-21T02:57:06;17.90;99.90
45945;DHT22;31655;48.972;10.686;2022-07-21T02:59:31;18.00;99.90
45945;DHT22;31655;48.972;10.686;2022-07-21T03:01:57;17.90;99.90
45945;DHT22;31655;48.972;10.686;2022-07-21T03:04:22;19.40;99.90
45945;DHT22;31655;48.972;10.686;2022-07-21T03:06:48;18.00;99.90
45945;DHT22;31655;48.972;10.686;2022-07-21T03:09:13;18.00;99.90
45945;DHT22;31655;48.972;10.686;2022-07-21T03:11:39;20.10;99.90
45945;DHT22;31655;48.972;10.686;2022-07-21T03:14:05;18.90;99.90
45945;DHT22;31655;48.972;10.686;2022-07-21T03:16:31;18.00;99.90
45945;DHT22;31655;48.972;10.686;2022-07-21T03:18:57;18.00;99.90
45945;DHT22;31655;48.972;10.686;2022-07-21T03:21:22;18.00;99.90
45945;DHT22;31655;48.972;10.686;2022-07-21T03:23:48;18.00;99.90
45945;DHT22;31655;48.972;10.686;2022-07-21T03:26:15;18.10;99.90
45945;DHT22;31655;48.972;10.686;2022-07-21T03:28:42;18.20;99.90
45945;DHT22;31655;48.972;10.686;2022-07-21T03:31:08;18.20;99.90
45945;DHT22;31655;48.972;10.686;2022-07-21T03:33:33;18.30;99.90
45945;DHT22;31655;48.972;10.686;2022-07-21T03:35:59;18.30;99.90
45945;DHT22;31655;48.972;10.686;2022-07-21T03:38:25;18.40;99.90
45945;DHT22;31655;48.972;10.686;2022-07-21T03:40:51;18.40;99.90
45945;DHT22;31655;48.972;10.686;2022-07-21T03:43:17;18.40;99.90
45945;DHT22;31655;48.972;10.686;2022-07-21T03:45:43;18.50;99.90
45945;DHT22;31655;48.972;10.686;2022-07-21T03:48:09;18.60;99.90
45945;DHT22;31655;48.972;10.686;2022-07-21T03:50:41;18.60;99.90
45945;DHT22;31655;48.972;10.686;2022-07-21T03:53:08;18.60;99.90
45945;DHT22;31655;48.972;10.686;2022-07-21T03:55:33;18.60;99.90
45945;DHT22;31655;48.972;10.686;2022-07-21T03:58:02;18.60;99.90
45945;DHT22;31655;48.972;10.686;2022-07-21T04:00:28;18.60;99.90
45945;DHT22;31655;48.972;10.686;2022-07-21T04:02:55;18.60;99.90
45945;DHT22;31655;48.972;10.686;2022-07-21T04:05:22;18.60;99.90
45945;DHT22;31655;48.972;10.686;2022-07-21T04:07:49;18.70;99.90
45945;DHT22;31655;48.972;10.686;2022-07-21T04:10:17;18.70;99.90
45945;DHT22;31655;48.972;10.686;2022-07-21T04:12:43;18.70;99.90
45945;DHT22;31655;48.972;10.686;2022-07-21T04:15:09;18.70;99.90
45945;DHT22;31655;48.972;10.686;2022-07-21T04:17:36;18.70;99.90
45945;DHT22;31655;48.972;10.686;2022-07-21T04:20:03;18.80;99.90
45945;DHT22;31655;48.972;10.686;2022-07-21T04:22:29;18.70;99.90
45945;DHT22;31655;48.972;10.686;2022-07-21T04:24:55;18.70;99.90
45945;DHT22;31655;48.972;10.686;2022-07-21T04:27:21;19.00;99.90
45945;DHT22;31655;48.972;10.686;2022-07-21T04:29:46;18.70;99.90
45945;DHT22;31655;48.972;10.686;2022-07-21T04:32:12;18.80;99.90
45945;DHT22;31655;48.972;10.686;2022-07-21T04:34:38;18.60;99.90
45945;DHT22;31655;48.972;10.686;2022-07-21T04:37:04;18.80;99.90
45945;DHT22;31655;48.972;10.686;2022-07-21T04:39:29;18.70;99.90
45945;DHT22;31655;48.972;10.686;2022-07-21T04:41:55;18.80;99.90
45945;DHT22;31655;48.972;10.686;2022-07-21T04:44:20;18.70;99.90
45945;DHT22;31655;48.972;10.686;2022-07-21T04:46:46;18.70;99.90
45945;DHT22;31655;48.972;10.686;2022-07-21T04:49:11;18.70;99.90
45945;DHT22;31655;48.972;10.686;2022-07-21T04:51:37;18.70;99.90
45945;DHT22;31655;48.972;10.686;2022-07-21T04:54:03;18.70;99.90
45945;DHT22;31655;48.972;10.686;2022-07-21T04:56:28;18.70;99.90
45945;DHT22;31655;48.972;10.686;2022-07-21T04:58:54;18.70;99.90
45945;DHT22;31655;48.972;10.686;2022-07-21T05:01:19;18.70;99.90
45945;DHT22;31655;48.972;10.686;2022-07-21T05:03:45;18.80;99.90
45945;DHT22;31655;48.972;10.686;2022-07-21T05:06:11;18.80;99.90
45945;DHT22;31655;48.972;10.686;2022-07-21T05:08:37;18.80;99.90
45945;DHT22;31655;48.972;10.686;2022-07-21T05:11:03;19.00;99.90
45945;DHT22;31655;48.972;10.686;2022-07-21T05:13:28;19.10;99.90
45945;DHT22;31655;48.972;10.686;2022-07-21T05:15:54;19.10;99.90
45945;DHT22;31655;48.972;10.686;2022-07-21T05:18:19;19.20;99.90
45945;DHT22;31655;48.972;10.686;2022-07-21T05:20:45;19.20;99.90
45945;DHT22;31655;48.972;10.686;2022-07-21T05:23:10;19.30;99.90
45945;DHT22;31655;48.972;10.686;2022-07-21T05:25:36;19.30;99.90
45945;DHT22;31655;48.972;10.686;2022-07-21T05:28:03;19.40;99.90
45945;DHT22;31655;48.972;10.686;2022-07-21T05:30:30;19.40;99.90
45945;DHT22;31655;48.972;10.686;2022-07-21T05:32:56;19.50;99.90
45945;DHT22;31655;48.972;10.686;2022-07-21T05:35:21;19.50;99.90
45945;DHT22;31655;48.972;10.686;2022-07-21T05:37:47;19.50;99.90
45945;DHT22;31655;48.972;10.686;2022-07-21T05:40:13;19.60;99.90
45945;DHT22;31655;48.972;10.686;2022-07-21T05:42:38;19.60;99.90
45945;DHT22;31655;48.972;10.686;2022-07-21T05:45:05;19.60;99.90
45945;DHT22;31655;48.972;10.686;2022-07-21T05:47:31;19.70;99.90
45945;DHT22;31655;48.972;10.686;2022-07-21T05:49:57;19.70;99.90
45945;DHT22;31655;48.972;10.686;2022-07-21T05:52:23;19.70;99.90
45945;DHT22;31655;48.972;10.686;2022-07-21T05:54:49;19.80;99.90
45945;DHT22;31655;48.972;10.686;2022-07-21T05:57:14;19.80;99.90
45945;DHT22;31655;48.972;10.686;2022-07-21T05:59:40;20.00;99.90
45945;DHT22;31655;48.972;10.686;2022-07-21T06:02:06;19.90;99.90
45945;DHT22;31655;48.972;10.686;2022-07-21T06:04:31;19.80;99.90
45945;DHT22;31655;48.972;10.686;2022-07-21T06:06:57;19.70;99.90
45945;DHT22;31655;48.972;10.686;2022-07-21T06:09:23;19.80;99.90
45945;DHT22;31655;48.972;10.686;2022-07-21T06:11:48;19.80;99.90
45945;DHT22;31655;48.972;10.686;2022-07-21T06:14:14;19.80;99.90
45945;DHT22;31655;48.972;10.686;2022-07-21T06:16:40;19.70;99.90
45945;DHT22;31655;48.972;10.686;2022-07-21T06:19:06;19.80;99.90
45945;DHT22;31655;48.972;10.686;2022-07-21T06:21:34;19.70;99.90
45945;DHT22;31655;48.972;10.686;2022-07-21T06:24:00;20.30;99.90
45945;DHT22;31655;48.972;10.686;2022-07-21T06:26:26;21.40;99.90
45945;DHT22;31655;48.972;10.686;2022-07-21T06:28:51;22.10;99.90
45945;DHT22;31655;48.972;10.686;2022-07-21T06:31:17;22.50;99.90
45945;DHT22;31655;48.972;10.686;2022-07-21T06:33:42;22.70;99.90
45945;DHT22;31655;48.972;10.686;2022-07-21T06:36:08;22.30;99.90
45945;DHT22;31655;48.972;10.686;2022-07-21T06:38:34;22.00;99.90
45945;DHT22;31655;48.972;10.686;2022-07-21T06:41:00;21.90;99.90
45945;DHT22;31655;48.972;10.686;2022-07-21T06:43:25;21.70;99.90
45945;DHT22;31655;48.972;10.686;2022-07-21T06:45:51;21.70;99.90
45945;DHT22;31655;48.972;10.686;2022-07-21T06:48:17;21.40;99.90
45945;DHT22;31655;48.972;10.686;2022-07-21T06:50:42;21.60;99.90
45945;DHT22;31655;48.972;10.686;2022-07-21T06:53:08;21.60;99.90
45945;DHT22;31655;48.972;10.686;2022-07-21T06:55:35;21.70;99.90
45945;DHT22;31655;48.972;10.686;2022-07-21T06:58:18;21.70;99.90
45945;DHT22;31655;48.972;10.686;2022-07-21T07:00:45;22.10;99.90
45945;DHT22;31655;48.972;10.686;2022-07-21T07:03:11;22.10;99.90
45945;DHT22;31655;48.972;10.686;2022-07-21T07:05:37;22.20;99.90
45945;DHT22;31655;48.972;10.686;2022-07-21T07:08:03;22.40;99.90
45945;DHT22;31655;48.972;10.686;2022-07-21T07:10:29;22.70;99.90
45945;DHT22;31655;48.972;10.686;2022-07-21T07:12:55;22.80;99.90
45945;DHT22;31655;48.972;10.686;2022-07-21T07:15:22;22.80;99.90
45945;DHT22;31655;48.972;10.686;2022-07-21T07:17:48;22.80;99.90
45945;DHT22;31655;48.972;10.686;2022-07-21T07:20:13;22.60;99.90
45945;DHT22;31655;48.972;10.686;2022-07-21T07:22:39;22.60;99.90
45945;DHT22;31655;48.972;10.686;2022-07-21T07:25:05;22.40;99.90
45945;DHT22;31655;48.972;10.686;2022-07-21T07:27:31;22.10;99.90
45945;DHT22;31655;48.972;10.686;2022-07-21T07:29:56;21.80;99.90
45945;DHT22;31655;48.972;10.686;2022-07-21T07:32:22;21.40;99.90
45945;DHT22;31655;48.972;10.686;2022-07-21T07:34:48;21.30;99.90
45945;DHT22;31655;48.972;10.686;2022-07-21T07:37:13;22.80;99.90
45945;DHT22;31655;48.972;10.686;2022-07-21T07:39:39;21.40;99.90
45945;DHT22;31655;48.972;10.686;2022-07-21T07:42:06;21.70;99.90
45945;DHT22;31655;48.972;10.686;2022-07-21T07:44:32;22.00;99.90
45945;DHT22;31655;48.972;10.686;2022-07-21T07:46:58;22.30;99.90
45945;DHT22;31655;48.972;10.686;2022-07-21T07:49:24;22.60;99.90
45945;DHT22;31655;48.972;10.686;2022-07-21T07:54:15;22.80;99.90
45945;DHT22;31655;48.972;10.686;2022-07-21T07:56:41;22.70;99.90
45945;DHT22;31655;48.972;10.686;2022-07-21T07:59:07;22.50;99.90
45945;DHT22;31655;48.972;10.686;2022-07-21T08:01:33;22.20;99.90
45945;DHT22;31655;48.972;10.686;2022-07-21T08:03:59;22.10;99.90
45945;DHT22;31655;48.972;10.686;2022-07-21T08:06:24;22.20;99.90
45945;DHT22;31655;48.972;10.686;2022-07-21T08:08:50;22.50;99.90
45945;DHT22;31655;48.972;10.686;2022-07-21T08:11:16;22.90;99.90
45945;DHT22;31655;48.972;10.686;2022-07-21T08:13:41;23.20;99.90
45945;DHT22;31655;48.972;10.686;2022-07-21T08:16:07;23.60;99.90
45945;DHT22;31655;48.972;10.686;2022-07-21T08:18:33;24.10;99.90
45945;DHT22;31655;48.972;10.686;2022-07-21T08:20:58;24.80;99.90
45945;DHT22;31655;48.972;10.686;2022-07-21T08:23:24;25.20;99.90
45945;DHT22;31655;48.972;10.686;2022-07-21T08:25:50;25.70;99.90
45945;DHT22;31655;48.972;10.686;2022-07-21T08:28:15;26.00;99.90
45945;DHT22;31655;48.972;10.686;2022-07-21T08:30:41;26.90;99.90
45945;DHT22;31655;48.972;10.686;2022-07-21T08:33:07;27.70;99.90
45945;DHT22;31655;48.972;10.686;2022-07-21T08:35:33;27.20;99.90
45945;DHT22;31655;48.972;10.686;2022-07-21T08:38:07;27.30;99.90
45945;DHT22;31655;48.972;10.686;2022-07-21T08:40:39;26.90;99.90
45945;DHT22;31655;48.972;10.686;2022-07-21T08:43:05;26.40;99.90
45945;DHT22;31655;48.972;10.686;2022-07-21T08:45:35;25.90;99.90
45945;DHT22;31655;48.972;10.686;2022-07-21T08:48:01;25.80;99.90
45945;DHT22;31655;48.972;10.686;2022-07-21T08:50:30;26.20;99.90
45945;DHT22;31655;48.972;10.686;2022-07-21T08:52:56;27.90;99.90
45945;DHT22;31655;48.972;10.686;2022-07-21T08:55:23;27.00;99.90
45945;DHT22;31655;48.972;10.686;2022-07-21T08:57:48;27.10;99.90
45945;DHT22;31655;48.972;10.686;2022-07-21T09:00:14;27.40;99.90
45945;DHT22;31655;48.972;10.686;2022-07-21T09:02:40;27.80;99.90
45945;DHT22;31655;48.972;10.686;2022-07-21T09:05:07;28.20;99.90
45945;DHT22;31655;48.972;10.686;2022-07-21T09:07:53;28.90;99.90
45945;DHT22;31655;48.972;10.686;2022-07-21T09:10:28;29.70;99.90
45945;DHT22;31655;48.972;10.686;2022-07-21T09:12:57;30.40;97.20
45945;DHT22;31655;48.972;10.686;2022-07-21T09:15:26;31.10;92.60
45945;DHT22;31655;48.972;10.686;2022-07-21T09:18:12;31.00;88.80
45945;DHT22;31655;48.972;10.686;2022-07-21T09:20:45;30.10;88.40
45945;DHT22;31655;48.972;10.686;2022-07-21T09:23:15;29.50;90.20
45945;DHT22;31655;48.972;10.686;2022-07-21T09:25:45;29.30;90.80
45945;DHT22;31655;48.972;10.686;2022-07-21T09:28:17;29.50;92.70
45945;DHT22;31655;48.972;10.686;2022-07-21T09:31:04;29.00;91.50
45945;DHT22;31655;48.972;10.686;2022-07-21T09:33:38;28.40;92.50
45945;DHT22;31655;48.972;10.686;2022-07-21T09:38:34;28.00;93.20
45945;DHT22;31655;48.972;10.686;2022-07-21T09:41:08;27.90;94.50
45945;DHT22;31655;48.972;10.686;2022-07-21T09:44:11;27.40;94.70
45945;DHT22;31655;48.972;10.686;2022-07-21T09:46:30;27.40;95.80
45945;DHT22;31655;48.972;10.686;2022-07-21T09:49:00;27.30;95.70
45945;DHT22;31655;48.972;10.686;2022-07-21T09:51:30;27.40;95.60
45945;DHT22;31655;48.972;10.686;2022-07-21T09:54:02;27.30;96.10
45945;DHT22;31655;48.972;10.686;2022-07-21T09:56:36;27.40;96.30
45945;DHT22;31655;48.972;10.686;2022-07-21T09:59:03;28.10;95.10
45945;DHT22;31655;48.972;10.686;2022-07-21T10:01:30;27.70;94.10
45945;DHT22;31655;48.972;10.686;2022-07-21T10:03:58;28.30;93.40
45945;DHT22;31655;48.972;10.686;2022-07-21T10:06:32;29.00;93.10
45945;DHT22;31655;48.972;10.686;2022-07-21T10:08:59;29.40;93.10
45945;DHT22;31655;48.972;10.686;2022-07-21T10:11:25;29.80;91.30
45945;DHT22;31655;48.972;10.686;2022-07-21T10:13:51;30.40;90.20
45945;DHT22;31655;48.972;10.686;2022-07-21T10:16:17;30.60;87.50
45945;DHT22;31655;48.972;10.686;2022-07-21T10:24:15;31.10;80.80
45945;DHT22;31655;48.972;10.686;2022-07-21T10:32:15;28.00;84.40
45945;DHT22;31655;48.972;10.686;2022-07-21T10:34:41;27.60;86.30
45945;DHT22;31655;48.972;10.686;2022-07-21T10:37:08;26.70;90.20
45945;DHT22;31655;48.972;10.686;2022-07-21T10:39:34;26.50;90.90
45945;DHT22;31655;48.972;10.686;2022-07-21T10:42:14;26.30;91.70
45945;DHT22;31655;48.972;10.686;2022-07-21T10:44:42;26.90;90.50
45945;DHT22;31655;48.972;10.686;2022-07-21T10:47:09;27.60;91.30
45945;DHT22;31655;48.972;10.686;2022-07-21T10:49:44;28.70;89.00
45945;DHT22;31655;48.972;10.686;2022-07-21T10:57:46;29.80;86.40
45945;DHT22;31655;48.972;10.686;2022-07-21T11:00:17;30.20;81.80
45945;DHT22;31655;48.972;10.686;2022-07-21T11:02:46;30.70;79.80
45945;DHT22;31655;48.972;10.686;2022-07-21T11:05:12;30.10;76.40
45945;DHT22;31655;48.972;10.686;2022-07-21T11:08:11;29.90;77.00
45945;DHT22;31655;48.972;10.686;2022-07-21T11:10:45;29.90;75.90
45945;DHT22;31655;48.972;10.686;2022-07-21T11:13:12;29.50;76.90
45945;DHT22;31655;48.972;10.686;2022-07-21T11:18:23;30.30;73.40
45945;DHT22;31655;48.972;10.686;2022-07-21T11:23:44;30.20;74.20
45945;DHT22;31655;48.972;10.686;2022-07-21T11:26:11;30.30;73.90
45945;DHT22;31655;48.972;10.686;2022-07-21T11:28:36;30.40;71.70
45945;DHT22;31655;48.972;10.686;2022-07-21T11:33:43;30.20;73.50
45945;DHT22;31655;48.972;10.686;2022-07-21T11:36:09;30.20;73.00
45945;DHT22;31655;48.972;10.686;2022-07-21T11:38:35;29.50;72.90
45945;DHT22;31655;48.972;10.686;2022-07-21T11:41:17;28.90;75.50
45945;DHT22;31655;48.972;10.686;2022-07-21T11:43:44;28.70;73.80
45945;DHT22;31655;48.972;10.686;2022-07-21T11:46:10;28.70;74.10
45945;DHT22;31655;48.972;10.686;2022-07-21T11:48:36;28.70;75.20
45945;DHT22;31655;48.972;10.686;2022-07-21T11:51:03;28.80;75.50
45945;DHT22;31655;48.972;10.686;2022-07-21T11:53:29;28.60;76.80
45945;DHT22;31655;48.972;10.686;2022-07-21T11:55:55;29.00;75.00
45945;DHT22;31655;48.972;10.686;2022-07-21T11:58:21;29.30;76.10
45945;DHT22;31655;48.972;10.686;2022-07-21T12:00:47;29.90;74.20
45945;DHT22;31655;48.972;10.686;2022-07-21T12:03:13;29.70;72.80
45945;DHT22;31655;48.972;10.686;2022-07-21T12:05:40;29.50;73.70
45945;DHT22;31655;48.972;10.686;2022-07-21T12:08:06;29.30;75.50
45945;DHT22;31655;48.972;10.686;2022-07-21T12:10:32;29.10;73.60
45945;DHT22;31655;48.972;10.686;2022-07-21T12:13:03;28.90;74.40
45945;DHT22;31655;48.972;10.686;2022-07-21T12:15:31;28.70;75.00
45945;DHT22;31655;48.972;10.686;2022-07-21T12:18:02;28.90;74.30
45945;DHT22;31655;48.972;10.686;2022-07-21T12:20:30;28.60;75.70
45945;DHT22;31655;48.972;10.686;2022-07-21T12:22:58;28.50;76.60
45945;DHT22;31655;48.972;10.686;2022-07-21T12:25:38;28.30;74.60
45945;DHT22;31655;48.972;10.686;2022-07-21T12:28:06;28.20;75.80
45945;DHT22;31655;48.972;10.686;2022-07-21T12:33:14;28.50;75.80
45945;DHT22;31655;48.972;10.686;2022-07-21T12:36:08;29.00;75.90
45945;DHT22;31655;48.972;10.686;2022-07-21T12:38:42;29.60;76.40
45945;DHT22;31655;48.972;10.686;2022-07-21T12:41:10;29.80;72.40
45945;DHT22;31655;48.972;10.686;2022-07-21T12:43:36;29.10;73.20
45945;DHT22;31655;48.972;10.686;2022-07-21T12:46:12;29.10;73.30
45945;DHT22;31655;48.972;10.686;2022-07-21T12:48:38;28.80;74.10
45945;DHT22;31655;48.972;10.686;2022-07-21T12:53:50;29.10;74.00
45945;DHT22;31655;48.972;10.686;2022-07-21T12:56:24;29.40;72.30
45945;DHT22;31655;48.972;10.686;2022-07-21T12:58:53;29.60;72.70
45945;DHT22;31655;48.972;10.686;2022-07-21T13:01:21;29.40;72.30
45945;DHT22;31655;48.972;10.686;2022-07-21T13:03:47;29.50;72.20
45945;DHT22;31655;48.972;10.686;2022-07-21T13:06:13;29.50;72.60
45945;DHT22;31655;48.972;10.686;2022-07-21T13:08:40;29.40;71.40
45945;DHT22;31655;48.972;10.686;2022-07-21T13:11:09;29.30;71.00
45945;DHT22;31655;48.972;10.686;2022-07-21T13:13:36;29.30;71.00
45945;DHT22;31655;48.972;10.686;2022-07-21T13:16:02;28.80;72.40
45945;DHT22;31655;48.972;10.686;2022-07-21T13:18:28;28.80;73.30
45945;DHT22;31655;48.972;10.686;2022-07-21T13:20:53;28.60;73.90
45945;DHT22;31655;48.972;10.686;2022-07-21T13:23:19;28.70;74.00
45945;DHT22;31655;48.972;10.686;2022-07-21T13:25:46;29.00;73.00
45945;DHT22;31655;48.972;10.686;2022-07-21T13:28:13;29.30;71.00
45945;DHT22;31655;48.972;10.686;2022-07-21T13:30:39;29.30;71.60
45945;DHT22;31655;48.972;10.686;2022-07-21T13:33:04;29.10;71.60
45945;DHT22;31655;48.972;10.686;2022-07-21T13:35:30;28.50;72.50
45945;DHT22;31655;48.972;10.686;2022-07-21T13:37:57;28.30;73.50
45945;DHT22;31655;48.972;10.686;2022-07-21T13:40:24;28.50;75.10
45945;DHT22;31655;48.972;10.686;2022-07-21T13:42:49;28.70;71.50
45945;DHT22;31655;48.972;10.686;2022-07-21T13:45:15;28.80;71.70
45945;DHT22;31655;48.972;10.686;2022-07-21T13:47:42;29.30;71.80
45945;DHT22;31655;48.972;10.686;2022-07-21T13:50:08;29.00;69.80
45945;DHT22;31655;48.972;10.686;2022-07-21T13:52:33;28.80;69.40
45945;DHT22;31655;48.972;10.686;2022-07-21T13:55:00;28.90;70.90
45945;DHT22;31655;48.972;10.686;2022-07-21T13:57:26;29.10;70.30
45945;DHT22;31655;48.972;10.686;2022-07-21T13:59:52;29.40;68.60
45945;DHT22;31655;48.972;10.686;2022-07-21T14:02:18;29.70;68.10
45945;DHT22;31655;48.972;10.686;2022-07-21T14:04:43;29.70;68.40
45945;DHT22;31655;48.972;10.686;2022-07-21T14:07:09;29.90;67.50
45945;DHT22;31655;48.972;10.686;2022-07-21T14:09:39;29.90;67.50
45945;DHT22;31655;48.972;10.686;2022-07-21T14:12:05;29.40;66.40
45945;DHT22;31655;48.972;10.686;2022-07-21T14:14:30;29.40;68.80
45945;DHT22;31655;48.972;10.686;2022-07-21T14:16:56;29.50;68.70
45945;DHT22;31655;48.972;10.686;2022-07-21T14:19:22;29.60;69.00
45945;DHT22;31655;48.972;10.686;2022-07-21T14:21:48;29.70;67.40
45945;DHT22;31655;48.972;10.686;2022-07-21T14:24:14;30.00;66.60
45945;DHT22;31655;48.972;10.686;2022-07-21T14:26:58;30.40;64.80
45945;DHT22;31655;48.972;10.686;2022-07-21T14:29:24;30.70;62.70
45945;DHT22;31655;48.972;10.686;2022-07-21T14:31:50;30.30;63.90
45945;DHT22;31655;48.972;10.686;2022-07-21T14:34:16;30.10;64.70
45945;DHT22;31655;48.972;10.686;2022-07-21T14:36:42;30.20;63.30
45945;DHT22;31655;48.972;10.686;2022-07-21T14:39:07;30.10;64.60
45945;DHT22;31655;48.972;10.686;2022-07-21T14:41:34;29.90;64.10
45945;DHT22;31655;48.972;10.686;2022-07-21T14:43:59;29.80;65.30
45945;DHT22;31655;48.972;10.686;2022-07-21T14:46:25;30.00;64.00
45945;DHT22;31655;48.972;10.686;2022-07-21T14:48:51;29.70;65.40
45945;DHT22;31655;48.972;10.686;2022-07-21T14:51:16;29.80;65.30
45945;DHT22;31655;48.972;10.686;2022-07-21T14:53:42;30.00;64.60
45945;DHT22;31655;48.972;10.686;2022-07-21T14:56:09;30.30;64.80
45945;DHT22;31655;48.972;10.686;2022-07-21T14:58:34;30.00;65.20
45945;DHT22;31655;48.972;10.686;2022-07-21T15:01:00;30.00;65.00
45945;DHT22;31655;48.972;10.686;2022-07-21T15:03:25;29.90;64.40
45945;DHT22;31655;48.972;10.686;2022-07-21T15:05:52;30.10;64.70
45945;DHT22;31655;48.972;10.686;2022-07-21T15:08:17;29.90;65.80
45945;DHT22;31655;48.972;10.686;2022-07-21T15:10:43;29.50;65.30
45945;DHT22;31655;48.972;10.686;2022-07-21T15:13:09;28.90;66.10
45945;DHT22;31655;48.972;10.686;2022-07-21T15:15:35;28.90;67.00
45945;DHT22;31655;48.972;10.686;2022-07-21T15:18:02;28.70;66.10
45945;DHT22;31655;48.972;10.686;2022-07-21T15:20:28;28.70;68.00
45945;DHT22;31655;48.972;10.686;2022-07-21T15:22:54;28.90;67.30
45945;DHT22;31655;48.972;10.686;2022-07-21T15:25:19;29.00;66.20
45945;DHT22;31655;48.972;10.686;2022-07-21T15:27:45;29.20;67.30
45945;DHT22;31655;48.972;10.686;2022-07-21T15:30:13;29.20;65.70
45945;DHT22;31655;48.972;10.686;2022-07-21T15:32:39;29.30;66.70
45945;DHT22;31655;48.972;10.686;2022-07-21T15:35:05;29.20;67.50
45945;DHT22;31655;48.972;10.686;2022-07-21T15:37:31;29.00;66.70
45945;DHT22;31655;48.972;10.686;2022-07-21T15:39:56;29.20;66.90
45945;DHT22;31655;48.972;10.686;2022-07-21T15:42:22;29.10;65.90
45945;DHT22;31655;48.972;10.686;2022-07-21T15:44:50;29.00;67.60
45945;DHT22;31655;48.972;10.686;2022-07-21T15:47:16;29.20;68.30
45945;DHT22;31655;48.972;10.686;2022-07-21T15:49:41;29.10;67.80